Time;durP1;ratioP1;P1;durP2;ratioP2;P2;SDS_P1;SDS_P2;PMS_P1;PMS_P2;Temp;Humidity;BMP_temperature;BMP_pressure;BME280_temperature;BME280_humidity;BME280_pressure;Samples;Min_cycle;Max_cycle;Signal;HPM_P1;HPM_P2
2023/05/20 00:58:14;;;;;;;2.22;1.70;;;13.40;67.40;;;;;;4919318;28;20103;-67
2023/05/20 01:00:42;;;;;;;4.55;1.95;;;13.50;66.80;;;;;;4925725;29;20108;-65
2023/05/20 01:03:09;;;;;;;2.10;1.40;;;13.50;66.60;;;;;;4947617;28;20454;-67
2023/05/20 01:05:37;;;;;;;3.17;1.55;;;13.60;66.30;;;;;;4953275;29;20086;-67
2023/05/20 01:08:04;;;;;;;2.72;1.42;;;13.60;66.10;;;;;;4937820;29;20035;-67
2023/05/20 01:10:32;;;;;;;4.80;1.60;;;13.70;66.10;;;;;;4938179;29;20039;-67
2023/05/20 01:13:01;;;;;;;2.85;1.40;;;13.70;66.00;;;;;;4924626;28;20043;-67
2023/05/20 01:15:29;;;;;;;2.78;1.50;;;13.70;65.50;;;;;;4956993;28;20043;-68
2023/05/20 01:18:00;;;;;;;3.50;1.40;;;13.80;65.50;;;;;;4938210;29;20035;-67
2023/05/20 01:20:31;;;;;;;3.30;1.50;;;13.80;65.20;;;;;;4936143;29;20085;-67
2023/05/20 01:22:57;;;;;;;;;;;13.80;64.90;;;;;;4940308;28;20054;-67
2023/05/20 01:25:25;;;;;;;4.07;1.20;;;13.90;64.70;;;;;;4956578;28;20383;-68
2023/05/20 01:27:53;;;;;;;2.20;1.40;;;13.90;64.40;;;;;;4974337;28;20453;-68
2023/05/20 01:30:21;;;;;;;1.23;1.13;;;14.00;64.30;;;;;;4957061;28;20043;-69
2023/05/20 01:32:57;;;;;;;3.92;1.00;;;14.00;64.30;;;;;;4973709;28;20147;-69
2023/05/20 01:35:25;;;;;;;4.13;1.10;;;14.00;63.90;;;;;;4939282;29;20031;-69
2023/05/20 01:37:52;;;;;;;1.67;1.02;;;14.00;63.10;;;;;;4927354;28;20042;-69
2023/05/20 01:40:20;;;;;;;3.00;1.27;;;14.00;62.70;;;;;;4957029;28;20158;-69
2023/05/20 01:42:51;;;;;;;2.83;1.05;;;14.10;62.70;;;;;;4956725;28;20039;-69
2023/05/20 01:45:19;;;;;;;2.72;0.90;;;14.10;63.10;;;;;;4918902;29;20075;-69
2023/05/20 01:47:47;;;;;;;1.85;0.90;;;14.20;63.00;;;;;;4935513;29;20167;-69
2023/05/20 01:50:14;;;;;;;4.88;1.10;;;14.20;62.40;;;;;;4946898;28;20046;-67
2023/05/20 01:52:42;;;;;;;2.10;1.00;;;14.20;62.20;;;;;;4960741;28;20027;-67
2023/05/20 01:55:09;;;;;;;1.30;1.05;;;14.20;61.80;;;;;;4941460;29;20047;-68
2023/05/20 07:50:04;;;;;;;3.00;1.48;;;14.70;53.50;;;;;;4804727;28;3639566;-68
2023/05/20 07:52:31;;;;;;;2.53;1.40;;;14.60;53.30;;;;;;4942769;28;20051;-68
2023/05/20 07:54:59;;;;;;;1.73;1.35;;;14.60;53.40;;;;;;4936398;29;20497;-67
2023/05/20 07:57:26;;;;;;;2.85;1.63;;;14.60;53.60;;;;;;4953205;28;20039;-68
2023/05/20 07:59:53;;;;;;;3.28;1.48;;;14.50;53.80;;;;;;4937772;28;20405;-65
2023/05/20 08:02:20;;;;;;;3.03;1.60;;;14.50;54.00;;;;;;4972919;28;20038;-65
2023/05/20 08:04:47;;;;;;;2.53;1.38;;;14.60;55.00;;;;;;4955689;28;20128;-66
2023/05/20 08:07:15;;;;;;;1.90;1.50;;;14.50;55.20;;;;;;4972771;28;20393;-66
2023/05/20 08:09:42;;;;;;;1.77;1.30;;;14.50;55.60;;;;;;4960930;28;20156;-65
2023/05/20 08:12:09;;;;;;;2.33;1.80;;;14.40;55.90;;;;;;4968271;28;20035;-65
2023/05/20 08:14:37;;;;;;;1.77;1.50;;;14.40;56.40;;;;;;4953296;29;20618;-64
2023/05/20 08:17:04;;;;;;;2.55;1.58;;;14.40;56.40;;;;;;4952981;28;20406;-66
2023/05/20 08:19:32;;;;;;;3.00;1.90;;;14.40;56.60;;;;;;4934964;28;20047;-65
2023/05/20 08:21:59;;;;;;;2.40;1.70;;;14.40;57.00;;;;;;4952330;28;20050;-66
2023/05/20 08:24:26;;;;;;;2.63;1.70;;;14.30;57.00;;;;;;4948223;28;20090;-65
2023/05/20 08:26:53;;;;;;;3.20;2.05;;;14.30;57.10;;;;;;4958114;28;20506;-64
2023/05/20 08:29:20;;;;;;;3.08;1.83;;;14.30;57.20;;;;;;4956681;28;20051;-63
2023/05/20 08:31:48;;;;;;;4.90;2.38;;;14.30;57.70;;;;;;4955414;28;20044;-65
2023/05/20 08:34:15;;;;;;;2.97;2.20;;;14.20;57.90;;;;;;4953847;28;20034;-65
2023/05/20 08:36:44;;;;;;;10.43;2.47;;;14.20;58.30;;;;;;4949619;28;20039;-66
2023/05/20 08:39:11;;;;;;;4.28;2.08;;;14.20;58.30;;;;;;4955140;28;20067;-65
2023/05/20 08:41:38;;;;;;;3.97;1.98;;;14.20;58.70;;;;;;4950574;28;20063;-65
2023/05/20 08:44:05;;;;;;;3.83;2.17;;;14.10;58.50;;;;;;4930616;29;20051;-65
2023/05/20 08:46:33;;;;;;;3.80;2.17;;;14.10;58.80;;;;;;4948704;28;20039;-65
2023/05/20 08:49:00;;;;;;;4.22;2.40;;;14.00;59.10;;;;;;4918105;29;20047;-66
2023/05/20 08:51:28;;;;;;;5.90;2.00;;;14.00;59.40;;;;;;4952980;28;20071;-65
2023/05/20 08:53:55;;;;;;;3.40;2.20;;;14.00;59.90;;;;;;4940274;28;20066;-66
2023/05/20 08:56:23;;;;;;;4.45;2.10;;;13.90;60.30;;;;;;4964847;28;20093;-66
2023/05/20 08:58:50;;;;;;;6.43;2.17;;;13.90;60.20;;;;;;4934078;28;20560;-66
2023/05/20 09:01:18;;;;;;;4.95;2.47;;;13.90;60.20;;;;;;4949657;28;20276;-65
2023/05/20 09:03:46;;;;;;;4.85;2.40;;;13.90;60.70;;;;;;4938305;28;20039;-66
2023/05/20 09:06:19;;;;;;;16.65;6.40;;;13.90;60.10;;;;;;4918290;28;20031;-65
2023/05/20 09:08:50;;;;;;;22.70;9.18;;;13.90;60.00;;;;;;4951145;28;20105;-64
2023/05/20 09:11:18;;;;;;;22.10;8.32;;;14.00;60.40;;;;;;4936234;29;20461;-63
2023/05/20 09:13:45;;;;;;;11.88;5.35;;;14.00;60.60;;;;;;4951110;28;20561;-66
2023/05/20 09:16:12;;;;;;;12.43;5.03;;;14.00;60.40;;;;;;4936110;28;20036;-66
2023/05/20 09:18:42;;;;;;;9.30;3.95;;;14.00;60.50;;;;;;4957893;28;20525;-64
2023/05/20 09:21:10;;;;;;;8.18;3.72;;;14.00;60.30;;;;;;4935372;28;20049;-63
2023/05/20 09:23:38;;;;;;;9.10;4.18;;;14.00;60.60;;;;;;4954454;28;20038;-65
2023/05/20 09:26:05;;;;;;;10.18;3.90;;;13.90;60.80;;;;;;4933602;28;20032;-66
2023/05/20 09:28:34;;;;;;;9.30;4.75;;;13.90;61.10;;;;;;4957371;28;20397;-66
2023/05/20 09:31:02;;;;;;;5.97;3.70;;;13.80;61.70;;;;;;4956386;28;20047;-65
2023/05/20 09:33:30;;;;;;;7.18;4.22;;;13.80;61.80;;;;;;4948599;28;20122;-65
2023/05/20 09:36:05;;;;;;;10.40;4.28;;;13.80;62.10;;;;;;4945431;28;20046;-65
2023/05/20 09:38:37;;;;;;;7.93;3.85;;;13.70;62.20;;;;;;4929924;28;20190;-65
2023/05/20 09:41:14;;;;;;;11.70;4.97;;;13.70;62.50;;;;;;4949868;28;20039;-66
2023/05/20 09:43:41;;;;;;;6.15;3.90;;;13.70;62.80;;;;;;4950263;28;20047;-65
2023/05/20 09:46:09;;;;;;;9.25;4.63;;;13.70;63.00;;;;;;4952360;28;20049;-65
2023/05/20 09:48:37;;;;;;;12.98;5.53;;;13.70;63.40;;;;;;4937739;28;20035;-65
2023/05/20 09:51:06;;;;;;;11.10;4.90;;;13.70;63.40;;;;;;4942908;29;20047;-66
2023/05/20 09:53:33;;;;;;;8.73;4.70;;;13.60;63.40;;;;;;4951827;28;20031;-65
2023/05/20 09:56:00;;;;;;;7.40;3.55;;;13.60;63.60;;;;;;4934325;29;20610;-66
2023/05/20 09:58:28;;;;;;;7.95;3.95;;;13.60;63.90;;;;;;4950628;28;20586;-65
2023/05/20 10:00:56;;;;;;;8.73;4.07;;;13.50;64.50;;;;;;4939341;28;20035;-65
2023/05/20 10:03:27;;;;;;;8.50;3.80;;;13.50;65.00;;;;;;4953731;28;20036;-65
2023/05/20 10:06:16;;;;;;;6.68;4.20;;;13.50;64.80;;;;;;4951867;28;20099;-66
2023/05/20 10:08:57;;;;;;;10.20;4.85;;;13.40;64.50;;;;;;4948588;28;20031;-64
2023/05/20 10:11:30;;;;;;;9.50;4.88;;;13.40;65.10;;;;;;4931422;28;20038;-64
2023/05/20 10:14:10;;;;;;;7.15;4.25;;;13.30;65.60;;;;;;4946008;28;20549;-66
2023/05/20 10:17:14;;;;;;;9.07;4.95;;;13.30;65.90;;;;;;4934779;28;20397;-65
2023/05/20 10:19:41;;;;;;;10.02;4.95;;;13.20;66.10;;;;;;4945791;28;20433;-65
2023/05/20 10:22:09;;;;;;;7.00;4.28;;;13.20;66.30;;;;;;4929556;29;20058;-66
2023/05/20 10:24:39;;;;;;;9.05;4.82;;;13.20;66.20;;;;;;4922167;28;20637;-66
2023/05/20 10:27:13;;;;;;;7.95;4.70;;;13.20;65.90;;;;;;4949887;28;20509;-66
2023/05/20 10:29:43;;;;;;;7.43;4.90;;;13.20;65.90;;;;;;4952693;28;20098;-66
2023/05/20 10:32:11;;;;;;;10.60;4.63;;;13.20;65.40;;;;;;4947811;28;20293;-66
2023/05/20 10:34:48;;;;;;;7.40;4.28;;;13.20;65.00;;;;;;4934487;29;20035;-65
2023/05/20 10:37:42;;;;;;;6.53;4.22;;;13.20;64.90;;;;;;4937474;28;20070;-65
2023/05/20 10:40:14;;;;;;;8.65;4.72;;;13.20;64.80;;;;;;4930962;28;20370;-65
2023/05/20 10:42:42;;;;;;;17.15;6.07;;;13.20;65.30;;;;;;4950321;28;20046;-65
2023/05/20 10:45:09;;;;;;;15.60;5.72;;;13.20;64.80;;;;;;4949818;28;20039;-66
2023/05/20 10:47:41;;;;;;;10.07;4.85;;;13.20;64.90;;;;;;4935480;29;20110;-64
2023/05/20 10:50:13;;;;;;;15.32;5.40;;;13.20;65.90;;;;;;4936485;29;20043;-64
2023/05/20 10:52:40;;;;;;;11.07;5.72;;;13.20;65.10;;;;;;4950739;28;20040;-63
2023/05/20 10:55:18;;;;;;;12.25;6.07;;;13.20;65.20;;;;;;4917229;28;20050;-64
2023/05/20 10:57:46;;;;;;;7.30;4.50;;;13.20;64.80;;;;;;4937846;28;20031;-63
2023/05/20 11:00:14;;;;;;;6.45;4.13;;;13.20;64.80;;;;;;4951225;28;20040;-63
2023/05/20 11:02:41;;;;;;;8.30;3.92;;;13.20;64.80;;;;;;4932176;28;20389;-64
2023/05/20 11:05:11;;;;;;;9.15;4.05;;;13.10;65.20;;;;;;4935836;29;20493;-64
2023/05/20 11:07:39;;;;;;;5.57;3.27;;;13.10;65.00;;;;;;4952109;28;20039;-66
2023/05/20 11:10:08;;;;;;;7.30;3.45;;;13.10;64.20;;;;;;4921108;29;20058;-64
2023/05/20 11:36:45;;;;;;;7.22;3.85;;;13.00;65.70;;;;;;4928102;29;20071;-65
2023/05/20 11:39:13;;;;;;;7.93;4.28;;;12.90;66.30;;;;;;4951933;28;20122;-65
2023/05/20 11:41:42;;;;;;;8.77;4.43;;;13.00;66.60;;;;;;4954464;28;20183;-65
2023/05/20 11:44:13;;;;;;;8.23;4.25;;;12.90;66.70;;;;;;4938234;29;20031;-65
2023/05/20 11:46:45;;;;;;;10.20;5.13;;;12.90;66.50;;;;;;4953830;28;20042;-66
2023/05/20 11:49:15;;;;;;;6.82;3.88;;;12.90;66.70;;;;;;4937525;28;20039;-65
2023/05/20 11:51:46;;;;;;;10.05;4.82;;;12.90;66.40;;;;;;4920753;28;20531;-65
2023/05/20 11:54:13;;;;;;;;;;;12.80;66.60;;;;;;4955447;28;20047;-67
2023/05/20 11:56:40;;;;;;;11.35;4.43;;;12.80;67.70;;;;;;4952162;28;19910;-67
2023/05/20 11:59:09;;;;;;;13.52;5.00;;;12.70;67.80;;;;;;4955014;28;20394;-67
2023/05/20 12:01:41;;;;;;;6.90;4.22;;;12.70;67.80;;;;;;4954170;28;20041;-66
2023/05/20 12:04:09;;;;;;;11.13;4.68;;;12.70;67.70;;;;;;4938054;29;20487;-66
2023/05/20 12:06:37;;;;;;;6.63;3.63;;;12.70;68.00;;;;;;4951911;28;20052;-67
2023/05/20 12:09:06;;;;;;;7.78;4.50;;;12.70;68.30;;;;;;4954873;28;20398;-67
2023/05/20 12:11:38;;;;;;;9.07;4.80;;;12.70;68.40;;;;;;4938672;29;20379;-67
2023/05/20 12:14:06;;;;;;;8.75;4.53;;;12.70;68.50;;;;;;4954613;28;20438;-67
2023/05/20 12:16:34;;;;;;;10.52;5.07;;;12.70;68.60;;;;;;4953456;28;20035;-67
2023/05/20 12:19:02;;;;;;;8.23;5.05;;;12.70;68.70;;;;;;4935860;28;20031;-66
2023/05/20 12:21:30;;;;;;;7.63;4.45;;;12.70;68.70;;;;;;4955369;28;20095;-67
2023/05/20 12:24:00;;;;;;;6.57;4.63;;;12.70;69.20;;;;;;4935596;29;20039;-67
2023/05/20 12:26:27;;;;;;;;;;;12.60;69.40;;;;;;4937390;28;20043;-66
2023/05/20 12:28:55;;;;;;;10.17;4.60;;;12.60;69.80;;;;;;4936290;29;19985;-67
2023/05/20 12:31:23;;;;;;;6.63;4.10;;;12.50;70.10;;;;;;4955654;28;20058;-67
2023/05/20 12:33:50;;;;;;;7.10;4.20;;;12.50;70.00;;;;;;4953381;28;20031;-66
2023/05/20 12:36:18;;;;;;;7.93;4.22;;;12.50;70.40;;;;;;4952829;28;20039;-67
2023/05/20 12:38:45;;;;;;;8.02;4.05;;;12.50;70.70;;;;;;4920473;29;20391;-67
2023/05/20 12:41:13;;;;;;;6.75;3.97;;;12.40;70.70;;;;;;4950106;28;20490;-67
2023/05/20 12:43:40;;;;;;;7.60;3.75;;;12.40;70.80;;;;;;4955441;28;20035;-67
2023/05/20 12:46:08;;;;;;;7.07;3.85;;;12.50;70.80;;;;;;4955062;28;20168;-67
2023/05/20 12:48:35;;;;;;;6.00;2.92;;;12.50;70.70;;;;;;4961898;28;20039;-67
2023/05/20 12:51:03;;;;;;;3.80;2.38;;;12.50;70.40;;;;;;4954080;28;20054;-67
2023/05/20 12:53:30;;;;;;;3.45;2.40;;;12.50;70.40;;;;;;4958077;28;20391;-67
2023/05/20 12:55:58;;;;;;;4.75;2.20;;;12.50;70.30;;;;;;4956826;28;20066;-67
2023/05/20 12:58:25;;;;;;;2.28;1.88;;;12.50;70.10;;;;;;4966832;28;20034;-67
2023/05/20 13:00:52;;;;;;;3.65;2.28;;;12.60;69.70;;;;;;4936531;29;20450;-68
2023/05/20 13:03:20;;;;;;;2.95;1.77;;;12.60;69.60;;;;;;4956558;28;20105;-67
2023/05/20 13:05:47;;;;;;;2.38;1.90;;;12.60;69.20;;;;;;4953517;28;20497;-67
2023/05/20 13:08:15;;;;;;;4.78;2.00;;;12.70;69.20;;;;;;4954901;28;20036;-67
2023/05/20 13:10:42;;;;;;;4.75;1.60;;;12.60;69.00;;;;;;4953596;28;20047;-67
2023/05/20 13:13:10;;;;;;;3.08;1.80;;;12.70;68.80;;;;;;4954115;28;20062;-68
2023/05/20 13:15:37;;;;;;;2.88;1.70;;;12.70;68.70;;;;;;4954789;28;20047;-68
2023/05/20 13:18:05;;;;;;;6.43;2.40;;;12.70;68.70;;;;;;4941109;28;20023;-68
2023/05/20 13:20:33;;;;;;;4.68;1.83;;;12.70;68.70;;;;;;4954396;28;20118;-68
2023/05/20 13:23:00;;;;;;;3.28;1.92;;;12.70;69.00;;;;;;4931207;29;20042;-68
2023/05/20 13:25:28;;;;;;;4.38;2.33;;;12.60;69.10;;;;;;4938717;29;20038;-67
2023/05/20 13:27:55;;;;;;;8.13;2.80;;;12.60;69.60;;;;;;4955037;28;20477;-67
2023/05/20 13:30:22;;;;;;;5.57;2.80;;;12.60;69.90;;;;;;4959111;28;20047;-67
2023/05/20 13:32:50;;;;;;;5.18;2.50;;;12.50;70.00;;;;;;4969985;28;20085;-66
2023/05/20 13:35:18;;;;;;;5.70;2.75;;;12.50;70.30;;;;;;4962302;28;20057;-66
2023/05/20 13:37:45;;;;;;;4.97;2.00;;;12.50;70.30;;;;;;4953741;28;20055;-67
2023/05/20 13:40:13;;;;;;;5.05;2.20;;;12.50;70.60;;;;;;4955476;28;20574;-67
2023/05/20 13:42:40;;;;;;;7.53;2.30;;;12.50;70.60;;;;;;4968817;28;20398;-67
2023/05/20 13:45:08;;;;;;;4.53;2.55;;;12.40;70.70;;;;;;4951680;28;20098;-66
2023/05/20 13:47:35;;;;;;;4.22;2.33;;;12.50;70.70;;;;;;4954540;28;20046;-66
2023/05/20 13:50:03;;;;;;;8.95;2.15;;;12.50;70.60;;;;;;4956180;28;20043;-67
2023/05/20 13:52:30;;;;;;;4.38;2.28;;;12.40;70.50;;;;;;4963542;28;20110;-67
2023/05/20 13:54:58;;;;;;;2.65;1.52;;;12.50;70.40;;;;;;4955825;28;20521;-66
2023/05/20 13:57:25;;;;;;;3.15;1.80;;;12.50;70.30;;;;;;4953265;28;20062;-66
2023/05/20 13:59:52;;;;;;;2.05;1.45;;;12.50;70.20;;;;;;4953359;28;20110;-67
2023/05/20 14:02:20;;;;;;;4.35;1.90;;;12.50;70.20;;;;;;4952285;28;20035;-66
2023/05/20 14:04:47;;;;;;;12.07;2.47;;;12.50;70.00;;;;;;4953138;28;20049;-67
2023/05/20 14:07:15;;;;;;;2.08;1.63;;;12.50;69.80;;;;;;4953613;28;20040;-67
2023/05/20 14:09:42;;;;;;;3.75;1.60;;;12.50;69.90;;;;;;4953025;28;20047;-67
2023/05/20 14:12:10;;;;;;;2.75;1.75;;;12.50;69.80;;;;;;4953771;28;20473;-67
2023/05/20 14:14:37;;;;;;;2.85;1.77;;;12.40;69.90;;;;;;4960103;28;20485;-67
2023/05/20 14:17:04;;;;;;;4.05;1.90;;;12.50;70.10;;;;;;4954352;28;20482;-67
2023/05/20 14:19:32;;;;;;;3.10;1.50;;;12.50;70.00;;;;;;4952621;28;20039;-67
2023/05/20 14:22:00;;;;;;;2.75;1.90;;;12.40;70.20;;;;;;4953318;28;20034;-67
2023/05/20 14:24:27;;;;;;;2.00;1.55;;;12.40;70.50;;;;;;4953073;28;20055;-67
2023/05/20 14:26:55;;;;;;;3.28;1.80;;;12.30;70.60;;;;;;4956070;28;20037;-67
2023/05/20 14:29:22;;;;;;;2.75;1.90;;;12.30;70.60;;;;;;4953391;28;20043;-67
2023/05/20 14:31:50;;;;;;;13.82;1.73;;;12.40;70.40;;;;;;4953564;28;20527;-67
2023/05/20 14:34:17;;;;;;;3.75;1.50;;;12.30;70.60;;;;;;4951907;28;20386;-67
2023/05/20 14:36:44;;;;;;;2.60;1.80;;;12.30;71.10;;;;;;4956624;28;20068;-67
2023/05/20 14:39:12;;;;;;;4.13;1.75;;;12.30;71.10;;;;;;4940336;28;20106;-67
2023/05/20 14:41:39;;;;;;;4.70;1.63;;;12.30;71.40;;;;;;4953548;28;20105;-67
2023/05/20 14:44:07;;;;;;;2.40;1.80;;;12.30;71.40;;;;;;4953004;28;20119;-67
2023/05/20 14:46:34;;;;;;;2.40;1.40;;;12.30;71.50;;;;;;4956931;28;20063;-66
2023/05/20 14:49:02;;;;;;;2.13;1.50;;;12.30;72.20;;;;;;4941849;28;20035;-66
2023/05/20 14:51:30;;;;;;;1.77;1.50;;;12.20;72.10;;;;;;4953842;29;20042;-66
2023/05/20 14:53:57;;;;;;;2.78;1.50;;;12.20;71.80;;;;;;4935578;29;20035;-66
2023/05/20 14:56:25;;;;;;;2.78;1.48;;;12.20;71.70;;;;;;4956833;28;20043;-67
2023/05/20 14:58:53;;;;;;;2.92;1.70;;;12.20;71.30;;;;;;4956024;28;20036;-67
2023/05/20 15:01:20;;;;;;;3.30;1.60;;;12.10;71.30;;;;;;4963850;28;20042;-66
2023/05/20 15:03:47;;;;;;;2.42;1.60;;;12.20;71.30;;;;;;4962725;28;20045;-66
2023/05/20 15:06:15;;;;;;;2.63;1.40;;;12.20;70.90;;;;;;4955976;28;20061;-66
2023/05/20 15:08:42;;;;;;;1.70;1.35;;;12.20;70.50;;;;;;4956991;28;20090;-67
2023/05/20 15:11:10;;;;;;;2.10;1.63;;;12.20;70.40;;;;;;4958381;28;20050;-66
2023/05/20 15:13:37;;;;;;;4.20;1.70;;;12.20;70.50;;;;;;4939076;28;20031;-67
2023/05/20 15:16:05;;;;;;;1.83;1.55;;;12.20;70.40;;;;;;4960028;28;20031;-67
2023/05/20 15:18:33;;;;;;;1.73;1.45;;;12.20;70.30;;;;;;4959711;28;20054;-67
2023/05/20 15:21:00;;;;;;;3.15;1.90;;;12.20;70.20;;;;;;4956963;28;20035;-67
2023/05/20 15:23:27;;;;;;;1.98;1.60;;;12.20;71.30;;;;;;4968187;28;20524;-67
2023/05/20 15:25:57;;;;;;;2.92;1.67;;;12.10;71.60;;;;;;4938107;29;20035;-66
2023/05/20 15:28:25;;;;;;;2.40;1.40;;;12.20;71.50;;;;;;4951785;28;20039;-67
2023/05/20 15:30:54;;;;;;;2.72;1.40;;;12.00;71.60;;;;;;4956947;28;20106;-66
2023/05/20 15:33:21;;;;;;;1.52;1.40;;;12.00;71.70;;;;;;4940337;29;20059;-66
2023/05/20 15:35:49;;;;;;;2.17;1.38;;;12.00;72.00;;;;;;4963777;28;20125;-66
2023/05/20 15:38:16;;;;;;;1.80;1.40;;;11.90;72.10;;;;;;4955901;28;20050;-65
2023/05/20 15:40:44;;;;;;;1.40;1.23;;;11.90;72.10;;;;;;4956250;28;20038;-67
2023/05/20 15:43:11;;;;;;;2.80;1.60;;;11.90;72.10;;;;;;4957140;29;20433;-66
2023/05/20 15:45:38;;;;;;;2.95;1.45;;;11.90;72.20;;;;;;4955581;28;20048;-66
2023/05/20 15:48:07;;;;;;;2.15;1.35;;;11.80;72.60;;;;;;4967124;28;20119;-66
2023/05/20 15:50:35;;;;;;;2.50;1.48;;;11.90;72.90;;;;;;4960792;28;20043;-66
2023/05/20 15:53:05;;;;;;;2.10;1.40;;;11.90;72.90;;;;;;4938657;28;20498;-66
2023/05/20 15:55:32;;;;;;;1.80;1.42;;;11.80;73.30;;;;;;4954646;28;20031;-67
2023/05/20 15:58:00;;;;;;;2.78;1.40;;;11.80;74.00;;;;;;4960804;28;20039;-66
2023/05/20 16:00:27;;;;;;;3.38;1.30;;;11.70;73.80;;;;;;4953355;28;20490;-66
2023/05/20 16:02:55;;;;;;;4.13;1.67;;;11.80;73.80;;;;;;4955333;28;20449;-66
2023/05/20 16:05:24;;;;;;;2.17;1.48;;;11.70;73.90;;;;;;4955566;28;20068;-66
2023/05/20 16:07:52;;;;;;;2.03;1.50;;;11.80;73.80;;;;;;4954960;28;20047;-66
2023/05/20 16:10:20;;;;;;;1.88;1.48;;;11.80;73.40;;;;;;4955484;28;20047;-66
2023/05/20 16:12:47;;;;;;;4.50;1.48;;;11.70;74.70;;;;;;4953852;28;20035;-66
2023/05/20 16:15:14;;;;;;;2.00;1.45;;;11.70;74.60;;;;;;4955247;28;20043;-66
2023/05/20 16:17:42;;;;;;;2.10;1.52;;;11.70;74.90;;;;;;4956379;28;20063;-66
2023/05/20 16:20:09;;;;;;;2.10;1.48;;;11.70;74.80;;;;;;4955617;28;20523;-66
2023/05/20 16:22:37;;;;;;;1.95;1.30;;;11.60;74.80;;;;;;4954418;28;20087;-66
2023/05/20 16:25:05;;;;;;;2.63;1.45;;;11.60;75.00;;;;;;4955195;28;20035;-66
2023/05/20 16:27:32;;;;;;;2.60;1.50;;;11.60;74.80;;;;;;4938669;29;20066;-66
2023/05/20 16:29:59;;;;;;;2.53;1.67;;;11.60;74.80;;;;;;4955293;28;20094;-66
2023/05/20 16:32:27;;;;;;;2.72;1.70;;;11.50;74.70;;;;;;4970962;28;20382;-66
2023/05/20 16:34:54;;;;;;;5.05;1.67;;;11.50;75.70;;;;;;4954092;28;20164;-66
2023/05/20 16:37:22;;;;;;;2.05;1.50;;;11.50;75.30;;;;;;4954452;28;20043;-66
2023/05/20 16:39:49;;;;;;;2.30;1.42;;;11.40;75.40;;;;;;4958825;28;20035;-66
2023/05/20 16:42:17;;;;;;;2.38;1.60;;;11.40;75.40;;;;;;4954625;28;20529;-67
2023/05/20 16:44:44;;;;;;;2.13;1.40;;;11.30;75.40;;;;;;4954826;28;20035;-67
2023/05/20 16:47:12;;;;;;;3.55;1.40;;;11.20;75.60;;;;;;4961618;28;20058;-66
2023/05/20 16:49:39;;;;;;;5.78;1.70;;;11.20;75.80;;;;;;4954842;28;20051;-66
2023/05/20 16:52:07;;;;;;;2.42;1.70;;;11.20;75.70;;;;;;4964927;28;20031;-66
2023/05/20 16:54:37;;;;;;;2.83;1.50;;;11.20;75.80;;;;;;4958268;28;20031;-66
2023/05/20 16:57:05;;;;;;;5.35;2.17;;;11.20;76.20;;;;;;4938033;28;20051;-66
2023/05/20 16:59:33;;;;;;;2.22;1.60;;;11.20;76.30;;;;;;4922489;29;20122;-66
2023/05/20 17:02:01;;;;;;;2.10;1.48;;;11.10;76.80;;;;;;4953838;28;20401;-67
2023/05/20 17:04:28;;;;;;;3.35;1.65;;;11.10;76.70;;;;;;4955166;28;20041;-67
2023/05/20 17:06:55;;;;;;;3.55;1.60;;;11.10;76.70;;;;;;4955053;28;20024;-66
2023/05/20 17:09:23;;;;;;;2.50;1.65;;;11.10;76.70;;;;;;4955621;28;20467;-66
2023/05/20 17:11:51;;;;;;;1.48;1.20;;;11.10;76.60;;;;;;4953801;28;20131;-67
2023/05/20 17:14:19;;;;;;;3.33;1.85;;;11.10;76.90;;;;;;4953725;28;20031;-66
2023/05/20 17:16:46;;;;;;;5.07;1.90;;;11.00;77.40;;;;;;4958053;28;20114;-66
2023/05/20 17:19:14;;;;;;;2.63;1.58;;;11.00;77.10;;;;;;4955305;29;20410;-66
2023/05/20 17:21:43;;;;;;;2.05;1.60;;;10.90;77.40;;;;;;4945861;29;20082;-66
2023/05/20 17:24:10;;;;;;;2.20;1.48;;;10.90;77.60;;;;;;4954344;28;20110;-66
2023/05/20 17:26:38;;;;;;;3.35;2.00;;;10.90;77.90;;;;;;4958285;28;20437;-66
2023/05/20 17:29:05;;;;;;;2.78;1.52;;;11.00;78.00;;;;;;4938585;28;20122;-66
2023/05/20 17:31:32;;;;;;;5.80;1.95;;;10.90;78.20;;;;;;4938109;29;20095;-66
2023/05/20 17:34:00;;;;;;;2.85;1.42;;;10.80;78.00;;;;;;4954779;28;20045;-66
2023/05/20 17:36:27;;;;;;;9.35;1.75;;;10.80;78.10;;;;;;4958953;28;20049;-66
2023/05/20 17:38:55;;;;;;;2.45;1.67;;;10.80;77.80;;;;;;4954311;28;20058;-67
2023/05/20 17:41:22;;;;;;;3.35;1.70;;;10.80;77.70;;;;;;4954244;28;20095;-66
2023/05/20 17:43:50;;;;;;;2.75;1.55;;;10.80;77.90;;;;;;4954191;28;20094;-66
2023/05/20 17:46:17;;;;;;;2.65;1.70;;;10.80;77.60;;;;;;4955421;28;20520;-67
2023/05/20 17:48:45;;;;;;;1.73;1.50;;;10.80;78.40;;;;;;4946328;28;20102;-66
2023/05/20 17:51:12;;;;;;;2.70;1.77;;;10.90;78.40;;;;;;4953137;28;20065;-66
2023/05/20 17:53:40;;;;;;;3.05;1.90;;;10.80;78.30;;;;;;4937333;29;20474;-66
2023/05/20 17:56:07;;;;;;;5.63;1.90;;;10.80;77.70;;;;;;4936253;29;20043;-66
2023/05/20 17:58:35;;;;;;;2.60;1.80;;;10.80;77.70;;;;;;4939288;29;20028;-67
2023/05/20 18:01:02;;;;;;;2.72;1.70;;;10.80;77.50;;;;;;4952047;28;20090;-67
2023/05/20 18:03:30;;;;;;;4.32;1.75;;;10.80;77.70;;;;;;4947779;28;20039;-67
2023/05/20 18:05:57;;;;;;;3.10;1.73;;;10.70;77.80;;;;;;4937818;28;20054;-67
2023/05/20 18:08:25;;;;;;;2.25;1.50;;;10.70;78.20;;;;;;4964781;28;20030;-67
2023/05/20 18:10:52;;;;;;;6.00;1.80;;;10.60;78.80;;;;;;4940179;29;20043;-67
2023/05/20 18:13:19;;;;;;;2.88;1.58;;;10.50;78.90;;;;;;4952917;28;20027;-67
2023/05/20 18:15:47;;;;;;;3.28;1.58;;;10.50;79.30;;;;;;4953662;28;20043;-67
2023/05/20 18:18:14;;;;;;;1.95;1.65;;;10.50;79.20;;;;;;4950570;28;20031;-67
2023/05/20 18:20:42;;;;;;;4.90;1.90;;;10.50;79.00;;;;;;4940295;28;20066;-66
2023/05/20 18:23:09;;;;;;;3.22;1.60;;;10.60;78.60;;;;;;4950598;28;20027;-68
2023/05/20 18:25:37;;;;;;;4.82;1.65;;;10.70;78.80;;;;;;4936518;29;20621;-67
2023/05/20 18:28:04;;;;;;;2.22;1.58;;;10.70;78.90;;;;;;4952366;28;20050;-66
2023/05/20 18:30:32;;;;;;;3.85;1.70;;;10.70;78.10;;;;;;4952431;28;20442;-66
2023/05/20 18:32:59;;;;;;;5.13;1.75;;;10.70;78.00;;;;;;4959207;28;20125;-66
2023/05/20 18:35:27;;;;;;;5.60;1.85;;;10.80;77.80;;;;;;4950909;28;20035;-67
2023/05/20 18:37:54;;;;;;;3.47;1.80;;;10.90;77.80;;;;;;4951293;28;20048;-67
2023/05/20 18:40:22;;;;;;;3.85;1.73;;;10.80;77.30;;;;;;4935171;28;20039;-68
2023/05/20 18:42:49;;;;;;;8.60;1.80;;;10.90;76.90;;;;;;4934141;28;20042;-67
2023/05/20 18:45:16;;;;;;;5.05;1.63;;;11.00;76.80;;;;;;4960899;28;20054;-66
2023/05/20 18:47:44;;;;;;;3.90;1.80;;;11.00;76.70;;;;;;4958613;28;20118;-66
2023/05/20 18:50:11;;;;;;;7.35;2.00;;;11.00;76.50;;;;;;4949830;28;20147;-67
2023/05/20 18:52:39;;;;;;;4.53;2.08;;;11.00;76.60;;;;;;4951675;29;20121;-67
2023/05/20 18:55:07;;;;;;;4.80;1.60;;;11.10;76.40;;;;;;4932781;28;20039;-67
2023/05/20 18:57:34;;;;;;;3.78;1.67;;;11.10;76.60;;;;;;4957534;28;20027;-67
2023/05/20 19:00:03;;;;;;;4.78;1.60;;;11.20;76.60;;;;;;4937140;28;20038;-66
2023/05/20 19:02:31;;;;;;;5.05;1.90;;;11.20;76.60;;;;;;4933150;29;20047;-64
2023/05/20 19:04:58;;;;;;;8.75;2.10;;;11.20;76.70;;;;;;4961275;28;20043;-65
2023/05/20 19:07:26;;;;;;;5.30;1.75;;;11.20;76.70;;;;;;4950157;28;20613;-65
2023/05/20 19:09:53;;;;;;;2.17;1.40;;;11.20;76.30;;;;;;4949779;28;20532;-68
2023/05/20 19:12:21;;;;;;;1.88;1.27;;;11.30;76.70;;;;;;4933938;29;20050;-68
2023/05/20 23:09:20;;;;;;;1.30;0.80;;;13.50;62.50;;;;;;4949339;28;20062;-66
2023/05/20 23:11:47;;;;;;;1.00;0.80;;;13.60;62.30;;;;;;4952749;28;20063;-66
2023/05/20 23:14:15;;;;;;;4.07;0.77;;;13.60;61.90;;;;;;4956961;28;20043;-67
2023/05/20 23:16:42;;;;;;;2.47;0.90;;;13.70;62.00;;;;;;4954900;28;20086;-68
2023/05/20 23:19:10;;;;;;;1.27;0.73;;;13.70;61.60;;;;;;4949183;28;20031;-66
2023/05/20 23:21:37;;;;;;;2.10;0.90;;;13.80;61.10;;;;;;4953675;28;20039;-64
2023/05/20 23:24:05;;;;;;;2.60;0.70;;;13.80;61.20;;;;;;4953173;28;20043;-65
2023/05/20 23:26:33;;;;;;;2.55;1.02;;;13.80;61.30;;;;;;4956841;28;20402;-66
2023/05/20 23:29:01;;;;;;;2.67;0.98;;;13.90;61.30;;;;;;4953781;28;20409;-68
2023/05/20 23:31:28;;;;;;;3.30;0.85;;;13.80;61.30;;;;;;4939747;28;20047;-67
2023/05/20 23:33:56;;;;;;;2.35;0.80;;;13.90;61.10;;;;;;4973842;28;20042;-67
2023/05/20 23:36:33;;;;;;;3.42;0.82;;;13.90;61.00;;;;;;4961498;28;20510;-68
2023/05/20 23:39:01;;;;;;;2.47;0.68;;;13.90;60.70;;;;;;4950261;28;20038;-68
2023/05/20 23:41:28;;;;;;;3.22;1.00;;;13.90;60.80;;;;;;4953281;28;20106;-68
2023/05/20 23:43:56;;;;;;;2.45;0.88;;;14.00;60.50;;;;;;4934277;28;20048;-68
2023/05/20 23:46:23;;;;;;;2.55;0.90;;;13.90;61.00;;;;;;4953116;28;20046;-67
2023/05/20 23:48:51;;;;;;;1.90;1.00;;;14.00;60.70;;;;;;4951981;28;20067;-68
2023/05/20 23:51:19;;;;;;;5.63;1.17;;;14.00;60.80;;;;;;4952280;28;20051;-68
2023/05/20 23:53:46;;;;;;;1.30;0.82;;;14.10;60.90;;;;;;4956856;28;20047;-67
2023/05/20 23:56:14;;;;;;;4.20;0.88;;;14.20;61.20;;;;;;4953418;28;20050;-67
2023/05/20 23:58:41;;;;;;;2.40;0.77;;;14.30;60.30;;;;;;4954057;28;20506;-66
